createdAt,value
2017-11-15T00:00:46.869Z,1016.25
2017-11-15T00:01:46.848Z,1016.22
2017-11-15T00:02:46.829Z,1016.2
2017-11-15T00:03:46.811Z,1016.23
2017-11-15T00:04:46.794Z,1016.23
2017-11-15T00:05:46.774Z,1016.26
2017-11-15T00:06:46.756Z,1016.22
2017-11-15T00:07:46.737Z,1016.22
2017-11-15T00:08:46.726Z,1016.24
2017-11-15T00:09:46.698Z,1016.21
2017-11-15T00:10:46.680Z,1016.18
2017-11-15T00:11:46.662Z,1016.19
2017-11-15T00:12:46.644Z,1016.21
2017-11-15T00:13:46.675Z,1016.2
2017-11-15T00:14:46.609Z,1016.19
2017-11-15T00:15:46.589Z,1016.22
2017-11-15T00:16:46.570Z,1016.24
2017-11-15T00:17:46.553Z,1016.23
2017-11-15T00:18:46.532Z,1016.26
2017-11-15T00:19:46.514Z,1016.29
2017-11-15T00:20:46.496Z,1016.27
2017-11-15T00:21:46.482Z,1016.25
2017-11-15T00:22:46.459Z,1016.34
2017-11-15T00:23:46.493Z,1016.29
2017-11-15T00:24:46.421Z,1016.3
2017-11-15T00:25:46.402Z,1016.32
2017-11-15T00:26:46.399Z,1016.35
2017-11-15T00:27:46.367Z,1016.36
2017-11-15T00:28:46.347Z,1016.38
2017-11-15T00:29:46.332Z,1016.38
2017-11-15T00:30:46.311Z,1016.39
2017-11-15T00:31:46.293Z,1016.39
2017-11-15T00:32:46.272Z,1016.4
2017-11-15T00:33:46.255Z,1016.4
2017-11-15T00:34:46.238Z,1016.4
2017-11-15T00:35:46.220Z,1016.39
2017-11-15T00:36:46.199Z,1016.42
2017-11-15T00:37:46.181Z,1016.37
2017-11-15T00:38:46.166Z,1016.43
2017-11-15T00:39:46.145Z,1016.41
2017-11-15T00:40:46.126Z,1016.42
2017-11-15T00:41:46.109Z,1016.45
2017-11-15T00:42:46.091Z,1016.49
2017-11-15T00:43:46.071Z,1016.44
2017-11-15T00:44:46.052Z,1016.5
2017-11-15T00:45:46.035Z,1016.45
2017-11-15T00:46:46.016Z,1016.45
2017-11-15T00:47:45.997Z,1016.45
2017-11-15T00:48:45.979Z,1016.5
2017-11-15T00:49:45.961Z,1016.44
2017-11-15T00:50:45.943Z,1016.46
2017-11-15T00:51:45.924Z,1016.43
2017-11-15T00:52:45.909Z,1016.42
2017-11-15T00:53:45.887Z,1016.43
2017-11-15T00:54:45.869Z,1016.4
2017-11-15T00:55:45.851Z,1016.41
2017-11-15T00:56:45.832Z,1016.42
2017-11-15T00:57:45.812Z,1016.42
2017-11-15T00:58:45.796Z,1016.37
2017-11-15T00:59:45.776Z,1016.39
2017-11-15T01:00:45.761Z,1016.4
2017-11-15T01:01:45.740Z,1016.4
2017-11-15T01:02:45.725Z,1016.4
2017-11-15T01:03:45.704Z,1016.43
2017-11-15T01:04:45.685Z,1016.44
2017-11-15T01:05:45.671Z,1016.44
2017-11-15T01:06:45.649Z,1016.43
2017-11-15T01:07:45.630Z,1016.43
2017-11-15T01:08:45.619Z,1016.4
2017-11-15T01:09:45.593Z,1016.44
2017-11-15T01:10:45.575Z,1016.37
2017-11-15T01:11:45.554Z,1016.46
2017-11-15T01:12:45.537Z,1016.38
2017-11-15T01:13:45.518Z,1016.43
2017-11-15T01:14:45.501Z,1016.41
2017-11-15T01:15:45.484Z,1016.38
2017-11-15T01:16:45.464Z,1016.37
2017-11-15T01:17:45.444Z,1016.38
2017-11-15T01:18:45.428Z,1016.35
2017-11-15T01:19:45.408Z,1016.36
2017-11-15T01:20:45.390Z,1016.36
2017-11-15T01:21:45.371Z,1016.36
2017-11-15T01:22:45.353Z,1016.38
2017-11-15T01:23:45.335Z,1016.38
2017-11-15T01:24:45.317Z,1016.4
2017-11-15T01:25:45.299Z,1016.41
2017-11-15T01:26:45.285Z,1016.41
2017-11-15T01:27:45.261Z,1016.39
2017-11-15T01:28:45.244Z,1016.41
2017-11-15T01:29:45.225Z,1016.42
2017-11-15T01:30:45.208Z,1016.4
2017-11-15T01:31:45.189Z,1016.41
2017-11-15T01:32:45.169Z,1016.41
2017-11-15T01:33:45.152Z,1016.39
2017-11-15T01:34:45.182Z,1016.38
2017-11-15T01:35:45.115Z,1016.38
2017-11-15T01:36:45.098Z,1016.42
2017-11-15T01:37:45.080Z,1016.47
2017-11-15T01:38:45.060Z,1016.46
2017-11-15T01:39:45.041Z,1016.46
2017-11-15T01:40:45.022Z,1016.48
2017-11-15T01:41:45.003Z,1016.45
2017-11-15T01:42:44.987Z,1016.46
2017-11-15T01:43:44.971Z,1016.46
2017-11-15T01:44:44.948Z,1016.48
2017-11-15T01:45:44.929Z,1016.45
2017-11-15T01:46:44.912Z,1016.46
2017-11-15T01:47:44.894Z,1016.47
2017-11-15T01:48:44.881Z,1016.5
2017-11-15T01:49:44.857Z,1016.48
2017-11-15T01:50:44.838Z,1016.52
2017-11-15T01:51:44.821Z,1016.49
2017-11-15T01:52:44.801Z,1016.48
2017-11-15T01:53:44.794Z,1016.49
2017-11-15T01:54:44.765Z,1016.48
2017-11-15T01:55:44.949Z,1016.55
2017-11-15T01:56:44.728Z,1016.55
2017-11-15T01:57:44.710Z,1016.49
2017-11-15T01:58:44.691Z,1016.49
2017-11-15T01:59:44.674Z,1016.52
2017-11-15T02:00:44.655Z,1016.54
2017-11-15T02:01:44.635Z,1016.57
2017-11-15T02:02:44.616Z,1016.57
2017-11-15T02:03:44.599Z,1016.57
2017-11-15T02:04:44.581Z,1016.55
2017-11-15T02:05:44.561Z,1016.53
2017-11-15T02:06:44.542Z,1016.58
2017-11-15T02:07:44.524Z,1016.58
2017-11-15T02:08:44.510Z,1016.57
2017-11-15T02:09:44.489Z,1016.57
2017-11-15T02:10:44.469Z,1016.59
2017-11-15T02:11:44.454Z,1016.56
2017-11-15T02:12:44.441Z,1016.54
2017-11-15T02:13:44.415Z,1016.55
2017-11-15T02:14:44.416Z,1016.53
2017-11-15T02:15:44.381Z,1016.54
2017-11-15T02:16:44.362Z,1016.51
2017-11-15T02:17:44.347Z,1016.5
2017-11-15T02:18:44.324Z,1016.5
2017-11-15T02:19:44.305Z,1016.49
2017-11-15T02:20:44.297Z,1016.46
2017-11-15T02:21:44.274Z,1016.51
2017-11-15T02:22:44.250Z,1016.45
2017-11-15T02:23:44.232Z,1016.5
2017-11-15T02:24:44.212Z,1016.46
2017-11-15T02:25:44.196Z,1016.44
2017-11-15T02:26:44.177Z,1016.45
2017-11-15T02:27:44.159Z,1016.48
2017-11-15T02:28:44.139Z,1016.45
2017-11-15T02:29:44.131Z,1016.45
2017-11-15T02:30:44.103Z,1016.43
2017-11-15T02:31:44.084Z,1016.45
2017-11-15T02:32:44.068Z,1016.45
2017-11-15T02:33:44.047Z,1016.45
2017-11-15T02:34:44.031Z,1016.41
2017-11-15T02:35:44.010Z,1016.48
2017-11-15T02:36:43.990Z,1016.4
2017-11-15T02:37:43.972Z,1016.44
2017-11-15T02:38:43.957Z,1016.46
2017-11-15T02:39:43.944Z,1016.38
2017-11-15T02:40:43.918Z,1016.38
2017-11-15T02:41:43.899Z,1016.32
2017-11-15T02:42:43.881Z,1016.33
2017-11-15T02:43:43.861Z,1016.3
2017-11-15T02:44:43.842Z,1016.3
2017-11-15T02:45:43.826Z,1016.29
2017-11-15T02:46:43.822Z,1016.29
2017-11-15T02:47:43.789Z,1016.35
2017-11-15T02:48:43.771Z,1016.32
2017-11-15T02:49:43.751Z,1016.29
2017-11-15T02:50:43.732Z,1016.27
2017-11-15T02:51:43.714Z,1016.23
2017-11-15T02:52:43.695Z,1016.26
2017-11-15T02:53:43.679Z,1016.25
2017-11-15T02:54:43.662Z,1016.23
2017-11-15T02:55:43.644Z,1016.19
2017-11-15T02:56:43.624Z,1016.18
2017-11-15T02:57:43.603Z,1016.18
2017-11-15T02:58:43.585Z,1016.21
2017-11-15T02:59:43.566Z,1016.22
2017-11-15T03:00:43.549Z,1016.14
2017-11-15T03:01:43.537Z,1016.16
2017-11-15T03:02:43.511Z,1016.12
2017-11-15T03:03:43.494Z,1016.11
2017-11-15T03:04:43.475Z,1016.15
2017-11-15T03:05:43.462Z,1016.14
2017-11-15T03:06:43.438Z,1016.09
2017-11-15T03:07:43.419Z,1016.08
2017-11-15T03:08:43.402Z,1016.06
2017-11-15T03:09:43.381Z,1016.14
2017-11-15T03:10:43.363Z,1016.14
2017-11-15T03:11:43.348Z,1016.12
2017-11-15T03:12:43.329Z,1016.1
2017-11-15T03:13:43.309Z,1016.11
2017-11-15T03:14:43.292Z,1016.1
2017-11-15T03:15:43.271Z,1016.07
2017-11-15T03:16:43.251Z,1016.13
2017-11-15T03:17:43.235Z,1016.09
2017-11-15T03:18:43.216Z,1016.11
2017-11-15T03:19:43.197Z,1016.09
2017-11-15T03:20:43.179Z,1016.1
2017-11-15T03:21:43.162Z,1016.1
2017-11-15T03:22:43.143Z,1016.1
2017-11-15T03:23:43.122Z,1016.12
2017-11-15T03:24:43.105Z,1016.1
2017-11-15T03:25:43.086Z,1016.08
2017-11-15T03:26:43.066Z,1016.08
2017-11-15T03:27:43.050Z,1016.11
2017-11-15T03:28:43.030Z,1016.14
2017-11-15T03:29:43.014Z,1016.13
2017-11-15T03:30:42.996Z,1016.14
2017-11-15T03:31:42.975Z,1016.14
2017-11-15T03:32:42.962Z,1016.13
2017-11-15T03:33:42.939Z,1016.15
2017-11-15T03:34:42.919Z,1016.17
2017-11-15T03:35:42.902Z,1016.15
2017-11-15T03:36:42.883Z,1016.13
2017-11-15T03:37:42.865Z,1016.15
2017-11-15T03:38:42.846Z,1016.15
2017-11-15T03:39:42.827Z,1016.17
2017-11-15T03:40:42.812Z,1016.15
2017-11-15T03:41:42.790Z,1016.2
2017-11-15T03:42:42.771Z,1016.22
2017-11-15T03:43:42.753Z,1016.19
2017-11-15T03:44:42.733Z,1016.24
2017-11-15T03:45:42.715Z,1016.26
2017-11-15T03:46:42.699Z,1016.21
2017-11-15T03:47:42.679Z,1016.23
2017-11-15T03:48:42.661Z,1016.23
2017-11-15T03:49:42.644Z,1016.25
2017-11-15T03:50:42.623Z,1016.25
2017-11-15T03:51:42.606Z,1016.29
2017-11-15T03:52:42.586Z,1016.27
2017-11-15T03:53:42.568Z,1016.3
2017-11-15T03:54:42.551Z,1016.29
2017-11-15T03:55:42.532Z,1016.33
2017-11-15T03:56:42.512Z,1016.29
2017-11-15T03:57:42.494Z,1016.31
2017-11-15T03:58:42.476Z,1016.33
2017-11-15T03:59:42.458Z,1016.31
2017-11-15T04:00:42.442Z,1016.28
2017-11-15T04:01:42.420Z,1016.32
2017-11-15T04:02:42.404Z,1016.31
2017-11-15T04:03:42.387Z,1016.3
2017-11-15T04:04:42.366Z,1016.29
2017-11-15T04:05:42.346Z,1016.29
2017-11-15T04:06:42.337Z,1016.3
2017-11-15T04:07:42.310Z,1016.28
2017-11-15T04:08:42.296Z,1016.31
2017-11-15T04:09:42.274Z,1016.3
2017-11-15T04:10:42.257Z,1016.26
2017-11-15T04:11:42.237Z,1016.26
2017-11-15T04:12:42.218Z,1016.26
2017-11-15T04:13:42.202Z,1016.28
2017-11-15T04:14:42.181Z,1016.28
2017-11-15T04:15:42.165Z,1016.23
2017-11-15T04:16:42.144Z,1016.25
2017-11-15T04:17:42.131Z,1016.3
2017-11-15T04:18:42.109Z,1016.29
2017-11-15T04:19:42.090Z,1016.3
2017-11-15T04:20:42.073Z,1016.27
2017-11-15T04:21:42.052Z,1016.28
2017-11-15T04:22:42.034Z,1016.28
2017-11-15T04:23:42.017Z,1016.28
2017-11-15T04:24:41.998Z,1016.27
2017-11-15T04:25:41.982Z,1016.32
2017-11-15T04:26:41.961Z,1016.27
2017-11-15T04:27:41.947Z,1016.28
2017-11-15T04:28:41.929Z,1016.3
2017-11-15T04:29:41.912Z,1016.3
2017-11-15T04:30:41.889Z,1016.28
2017-11-15T04:31:41.868Z,1016.34
2017-11-15T04:32:41.857Z,1016.32
2017-11-15T04:33:41.833Z,1016.31
2017-11-15T04:34:41.813Z,1016.29
2017-11-15T04:35:41.796Z,1016.33
2017-11-15T04:36:41.777Z,1016.29
2017-11-15T04:37:41.759Z,1016.31
2017-11-15T04:38:41.740Z,1016.35
2017-11-15T04:39:41.723Z,1016.33
2017-11-15T04:40:41.703Z,1016.36
2017-11-15T04:41:41.685Z,1016.38
2017-11-15T04:42:41.668Z,1016.39
2017-11-15T04:43:41.647Z,1016.37
2017-11-15T04:44:41.629Z,1016.38
2017-11-15T04:45:41.610Z,1016.37
2017-11-15T04:46:41.593Z,1016.37
2017-11-15T04:47:41.573Z,1016.33
2017-11-15T04:48:41.559Z,1016.37
2017-11-15T04:49:41.536Z,1016.41
2017-11-15T04:50:41.516Z,1016.42
2017-11-15T04:51:41.502Z,1016.41
2017-11-15T04:52:41.479Z,1016.45
2017-11-15T04:53:41.465Z,1016.42
2017-11-15T04:54:41.449Z,1016.47
2017-11-15T04:55:41.425Z,1016.46
2017-11-15T04:56:41.407Z,1016.46
2017-11-15T04:57:41.388Z,1016.45
2017-11-15T04:58:41.371Z,1016.47
2017-11-15T04:59:41.356Z,1016.44
2017-11-15T05:00:41.331Z,1016.47
2017-11-15T05:01:41.312Z,1016.43
2017-11-15T05:02:41.296Z,1016.43
2017-11-15T05:03:41.303Z,1016.5
2017-11-15T05:04:41.257Z,1016.5
2017-11-15T05:05:41.244Z,1016.47
2017-11-15T05:06:41.220Z,1016.49
2017-11-15T05:07:41.203Z,1016.5
2017-11-15T05:08:41.186Z,1016.53
2017-11-15T05:09:41.165Z,1016.51
2017-11-15T05:10:41.149Z,1016.53
2017-11-15T05:11:41.129Z,1016.5
2017-11-15T05:12:41.108Z,1016.49
2017-11-15T05:13:41.090Z,1016.49
2017-11-15T05:14:41.275Z,1016.56
2017-11-15T05:15:41.053Z,1016.49
2017-11-15T05:16:41.032Z,1016.52
2017-11-15T05:17:41.016Z,1016.49
2017-11-15T05:18:41.000Z,1016.55
2017-11-15T05:19:40.978Z,1016.54
2017-11-15T05:20:40.958Z,1016.49
2017-11-15T05:21:40.940Z,1016.5
2017-11-15T05:22:40.922Z,1016.52
2017-11-15T05:23:40.912Z,1016.55
2017-11-15T05:24:40.885Z,1016.52
2017-11-15T05:25:40.868Z,1016.56
2017-11-15T05:26:40.851Z,1016.54
2017-11-15T05:27:40.847Z,1016.53
2017-11-15T05:28:40.814Z,1016.55
2017-11-15T05:29:40.792Z,1016.52
2017-11-15T05:30:40.773Z,1016.49
2017-11-15T05:31:40.753Z,1016.5
2017-11-15T05:32:40.734Z,1016.52
2017-11-15T05:33:40.715Z,1016.57
2017-11-15T05:34:40.697Z,1016.53
2017-11-15T05:35:40.683Z,1016.52
2017-11-15T05:36:40.658Z,1016.55
2017-11-15T05:37:40.641Z,1016.57
2017-11-15T05:38:40.624Z,1016.56
2017-11-15T05:39:40.604Z,1016.55
2017-11-15T05:40:40.593Z,1016.59
2017-11-15T05:41:40.567Z,1016.55
2017-11-15T05:42:40.548Z,1016.57
2017-11-15T05:43:40.527Z,1016.56
2017-11-15T05:44:40.513Z,1016.53
2017-11-15T05:45:40.491Z,1016.54
2017-11-15T05:46:40.476Z,1016.52
2017-11-15T05:47:40.453Z,1016.52
2017-11-15T05:48:40.435Z,1016.49
2017-11-15T05:49:40.417Z,1016.51
2017-11-15T05:50:40.399Z,1016.52
2017-11-15T05:51:40.387Z,1016.55
2017-11-15T05:52:40.361Z,1016.51
2017-11-15T05:53:40.341Z,1016.55
2017-11-15T05:54:40.323Z,1016.53
2017-11-15T05:55:40.305Z,1016.56
2017-11-15T05:56:40.488Z,1016.56
2017-11-15T05:57:40.269Z,1016.51
2017-11-15T05:58:40.252Z,1016.57
2017-11-15T05:59:40.230Z,1016.53
2017-11-15T06:00:40.209Z,1016.5
2017-11-15T06:01:40.192Z,1016.57
2017-11-15T06:02:40.176Z,1016.55
2017-11-15T06:03:40.155Z,1016.59
2017-11-15T06:04:40.137Z,1016.52
2017-11-15T06:05:40.121Z,1016.5
2017-11-15T06:06:40.101Z,1016.46
2017-11-15T06:07:40.082Z,1016.5
2017-11-15T06:08:40.063Z,1016.49
2017-11-15T06:09:40.044Z,1016.5
2017-11-15T06:10:40.122Z,1016.53
2017-11-15T06:11:40.103Z,1016.49
2017-11-15T06:12:40.053Z,1016.47
2017-11-15T06:13:40.013Z,1016.5
2017-11-15T06:14:39.994Z,1016.52
2017-11-15T06:15:40.028Z,1016.51
2017-11-15T06:16:39.963Z,1016.55
2017-11-15T06:17:39.905Z,1016.55
2017-11-15T06:18:39.876Z,1016.56
2017-11-15T06:19:39.860Z,1016.54
2017-11-15T06:20:39.953Z,1016.58
2017-11-15T06:21:39.905Z,1016.63
2017-11-15T06:22:39.887Z,1016.58
2017-11-15T06:23:39.897Z,1016.62
2017-11-15T06:24:39.840Z,1016.62
2017-11-15T06:25:39.858Z,1016.63
2017-11-15T06:26:39.726Z,1016.63
2017-11-15T06:27:39.831Z,1016.66
2017-11-15T06:28:39.753Z,1016.65
2017-11-15T06:29:39.694Z,1016.67
2017-11-15T06:30:39.677Z,1016.68
2017-11-15T06:31:39.636Z,1016.64
2017-11-15T06:32:39.632Z,1016.64
2017-11-15T06:33:39.604Z,1016.66
2017-11-15T06:34:39.770Z,1016.66
2017-11-15T06:35:39.640Z,1016.67
2017-11-15T06:36:39.712Z,1016.67
2017-11-15T06:37:39.525Z,1016.69
2017-11-15T06:38:39.503Z,1016.68
2017-11-15T06:39:39.539Z,1016.66
2017-11-15T06:40:39.468Z,1016.63
2017-11-15T06:41:39.457Z,1016.67
2017-11-15T06:42:39.433Z,1016.67
2017-11-15T06:43:39.412Z,1016.67
2017-11-15T06:44:39.443Z,1016.66
2017-11-15T06:45:39.379Z,1016.67
2017-11-15T06:46:39.359Z,1016.7
2017-11-15T06:47:39.337Z,1016.68
2017-11-15T06:48:39.320Z,1016.75
2017-11-15T06:49:39.300Z,1016.76
2017-11-15T06:50:39.290Z,1016.77
2017-11-15T06:51:39.263Z,1016.77
2017-11-15T06:52:39.245Z,1016.79
2017-11-15T06:53:39.230Z,1016.79
2017-11-15T06:54:39.208Z,1016.83
2017-11-15T06:55:39.190Z,1016.88
2017-11-15T06:56:39.174Z,1016.91
2017-11-15T06:57:39.154Z,1016.87
2017-11-15T06:58:39.136Z,1016.83
2017-11-15T06:59:39.116Z,1016.86
2017-11-15T07:00:39.098Z,1016.85
2017-11-15T07:01:39.081Z,1016.86
2017-11-15T07:02:39.062Z,1016.83
2017-11-15T07:03:39.044Z,1016.78
2017-11-15T07:04:39.025Z,1016.9
2017-11-15T07:05:39.007Z,1016.88
2017-11-15T07:06:38.988Z,1016.84
2017-11-15T07:07:38.969Z,1016.87
2017-11-15T07:08:38.950Z,1016.89
2017-11-15T07:09:38.932Z,1016.9
2017-11-15T07:10:38.916Z,1016.89
2017-11-15T07:11:38.897Z,1016.92
2017-11-15T07:12:38.882Z,1016.85
2017-11-15T07:13:38.861Z,1016.91
2017-11-15T07:14:38.844Z,1016.9
2017-11-15T07:15:38.833Z,1016.93
2017-11-15T07:16:38.805Z,1016.92
2017-11-15T07:17:38.786Z,1016.92
2017-11-15T07:18:38.768Z,1016.94
2017-11-15T07:19:38.751Z,1016.98
2017-11-15T07:20:38.732Z,1016.98
2017-11-15T07:21:38.713Z,1016.95
2017-11-15T07:22:38.695Z,1017
2017-11-15T07:23:38.675Z,1016.99
2017-11-15T07:24:38.658Z,1016.97
2017-11-15T07:25:38.641Z,1016.96
2017-11-15T07:26:38.622Z,1016.99
2017-11-15T07:27:38.604Z,1017.02
2017-11-15T07:28:38.585Z,1017.01
2017-11-15T07:29:38.566Z,1017
2017-11-15T07:30:38.548Z,1016.96
2017-11-15T07:31:38.528Z,1016.99
2017-11-15T07:32:38.512Z,1017
2017-11-15T07:33:38.494Z,1016.99
2017-11-15T07:34:38.476Z,1017.04
2017-11-15T07:35:38.459Z,1017.04
2017-11-15T07:36:38.439Z,1017.03
2017-11-15T07:37:38.423Z,1017.06
2017-11-15T07:38:38.402Z,1017.05
2017-11-15T07:39:38.384Z,1017.07
2017-11-15T07:40:38.365Z,1017.1
2017-11-15T07:41:38.349Z,1017.08
2017-11-15T07:42:38.333Z,1017.1
2017-11-15T07:43:38.312Z,1017.1
2017-11-15T07:44:38.293Z,1017.07
2017-11-15T07:45:38.277Z,1017.05
2017-11-15T07:46:38.257Z,1017.09
2017-11-15T07:47:38.242Z,1017.1
2017-11-15T07:48:38.220Z,1017.11
2017-11-15T07:49:38.209Z,1017.12
2017-11-15T07:50:38.189Z,1017.13
2017-11-15T07:51:38.169Z,1017.19
2017-11-15T07:52:38.150Z,1017.23
2017-11-15T07:53:38.131Z,1017.2
2017-11-15T07:54:38.113Z,1017.21
2017-11-15T07:55:38.096Z,1017.22
2017-11-15T07:56:38.281Z,1017.24
2017-11-15T07:57:38.059Z,1017.26
2017-11-15T07:58:38.043Z,1017.24
2017-11-15T07:59:38.028Z,1017.25
2017-11-15T08:00:38.005Z,1017.22
2017-11-15T08:01:37.989Z,1017.27
2017-11-15T08:02:37.970Z,1017.29
2017-11-15T08:03:37.955Z,1017.27
2017-11-15T08:04:37.933Z,1017.27
2017-11-15T08:05:37.917Z,1017.28
2017-11-15T08:06:37.903Z,1017.27
2017-11-15T08:07:37.882Z,1017.28
2017-11-15T08:08:37.869Z,1017.29
2017-11-15T08:09:37.845Z,1017.26
2017-11-15T08:10:37.828Z,1017.23
2017-11-15T08:11:37.808Z,1017.28
2017-11-15T08:12:37.793Z,1017.24
2017-11-15T08:13:37.784Z,1017.3
2017-11-15T08:14:37.757Z,1017.3
2017-11-15T08:15:37.740Z,1017.26
2017-11-15T08:16:37.722Z,1017.29
2017-11-15T08:17:37.705Z,1017.31
2017-11-15T08:18:37.685Z,1017.31
2017-11-15T08:19:37.682Z,1017.32
2017-11-15T08:20:37.650Z,1017.31
2017-11-15T08:21:37.633Z,1017.32
2017-11-15T08:22:37.616Z,1017.35
2017-11-15T08:23:37.599Z,1017.34
2017-11-15T08:24:37.579Z,1017.33
2017-11-15T08:25:37.564Z,1017.35
2017-11-15T08:26:37.544Z,1017.32
2017-11-15T08:27:37.528Z,1017.32
2017-11-15T08:28:37.510Z,1017.34
2017-11-15T08:29:37.492Z,1017.36
2017-11-15T08:30:37.476Z,1017.35
2017-11-15T08:31:37.457Z,1017.34
2017-11-15T08:32:37.439Z,1017.34
2017-11-15T08:33:37.423Z,1017.34
2017-11-15T08:34:37.406Z,1017.35
2017-11-15T08:35:37.386Z,1017.36
2017-11-15T08:36:37.370Z,1017.31
2017-11-15T08:37:37.353Z,1017.38
2017-11-15T08:38:37.339Z,1017.39
2017-11-15T08:39:37.319Z,1017.41
2017-11-15T08:40:37.303Z,1017.41
2017-11-15T08:41:37.282Z,1017.39
2017-11-15T08:42:37.264Z,1017.33
2017-11-15T08:43:37.247Z,1017.35
2017-11-15T08:44:37.231Z,1017.37
2017-11-15T08:45:37.212Z,1017.38
2017-11-15T08:46:37.195Z,1017.32
2017-11-15T08:47:37.177Z,1017.33
2017-11-15T08:48:37.157Z,1017.33
2017-11-15T08:49:37.143Z,1017.34
2017-11-15T08:50:37.125Z,1017.32
2017-11-15T08:51:37.107Z,1017.35
2017-11-15T08:52:37.095Z,1017.34
2017-11-15T08:53:37.073Z,1017.32
2017-11-15T08:54:37.055Z,1017.3
2017-11-15T08:55:37.038Z,1017.32
2017-11-15T08:56:37.021Z,1017.28
2017-11-15T08:57:37.003Z,1017.29
2017-11-15T08:58:36.986Z,1017.29
2017-11-15T08:59:36.970Z,1017.3
2017-11-15T09:00:36.953Z,1017.35
2017-11-15T09:01:36.985Z,1017.35
2017-11-15T09:02:36.919Z,1017.37
2017-11-15T09:03:36.900Z,1017.36
2017-11-15T09:04:36.882Z,1017.35
2017-11-15T09:05:36.865Z,1017.37
2017-11-15T09:06:36.847Z,1017.36
2017-11-15T09:07:36.832Z,1017.34
2017-11-15T09:08:36.816Z,1017.34
2017-11-15T09:09:36.796Z,1017.37
2017-11-15T09:10:36.781Z,1017.35
2017-11-15T09:11:36.762Z,1017.31
2017-11-15T09:12:36.747Z,1017.3
2017-11-15T09:13:36.730Z,1017.32
2017-11-15T09:14:36.711Z,1017.32
2017-11-15T09:15:36.697Z,1017.35
2017-11-15T09:16:36.680Z,1017.39
2017-11-15T09:17:36.668Z,1017.38
2017-11-15T09:18:36.644Z,1017.38
2017-11-15T09:19:36.627Z,1017.4
2017-11-15T09:20:36.610Z,1017.39
2017-11-15T09:21:36.593Z,1017.38
2017-11-15T09:22:36.575Z,1017.45
2017-11-15T09:23:36.572Z,1017.44
2017-11-15T09:24:36.542Z,1017.43
2017-11-15T09:25:36.530Z,1017.45
2017-11-15T09:26:36.558Z,1017.44
2017-11-15T09:27:36.494Z,1017.44
2017-11-15T09:28:36.475Z,1017.44
2017-11-15T09:29:36.462Z,1017.46
2017-11-15T09:30:36.442Z,1017.44
2017-11-15T09:31:36.425Z,1017.47
2017-11-15T09:32:36.408Z,1017.41
2017-11-15T09:33:36.390Z,1017.41
2017-11-15T09:34:36.374Z,1017.42
2017-11-15T09:35:36.358Z,1017.41
2017-11-15T09:36:36.341Z,1017.45
2017-11-15T09:37:36.328Z,1017.45
2017-11-15T09:38:36.308Z,1017.46
2017-11-15T09:39:36.288Z,1017.43
2017-11-15T09:40:36.275Z,1017.43
2017-11-15T09:41:36.257Z,1017.5
2017-11-15T09:42:36.242Z,1017.45
2017-11-15T09:43:36.226Z,1017.49
2017-11-15T09:44:36.208Z,1017.5
2017-11-15T09:45:36.193Z,1017.51
2017-11-15T09:46:36.177Z,1017.53
2017-11-15T09:47:36.158Z,1017.5
2017-11-15T09:48:36.147Z,1017.52
2017-11-15T09:49:36.128Z,1017.59
2017-11-15T09:50:36.107Z,1017.55
2017-11-15T09:51:36.091Z,1017.53
2017-11-15T09:52:36.079Z,1017.49
2017-11-15T09:53:36.059Z,1017.52
2017-11-15T09:54:36.041Z,1017.51
2017-11-15T09:55:36.027Z,1017.48
2017-11-15T09:56:36.212Z,1017.49
2017-11-15T09:57:35.996Z,1017.5
2017-11-15T09:58:35.978Z,1017.46
2017-11-15T09:59:35.962Z,1017.48
2017-11-15T10:00:35.947Z,1017.46
2017-11-15T10:01:35.928Z,1017.45
2017-11-15T10:02:35.912Z,1017.48
2017-11-15T10:03:35.914Z,1017.51
2017-11-15T10:04:35.879Z,1017.51
2017-11-15T10:05:35.865Z,1017.51
2017-11-15T10:06:35.845Z,1017.53
2017-11-15T10:07:35.830Z,1017.52
2017-11-15T10:08:35.814Z,1017.54
2017-11-15T10:09:35.799Z,1017.51
2017-11-15T10:10:35.781Z,1017.52
2017-11-15T10:11:35.766Z,1017.52
2017-11-15T10:12:35.749Z,1017.54
2017-11-15T10:13:35.744Z,1017.49
2017-11-15T10:14:35.720Z,1017.49
2017-11-15T10:15:35.700Z,1017.49
2017-11-15T10:16:35.684Z,1017.48
2017-11-15T10:17:35.669Z,1017.5
2017-11-15T10:18:35.652Z,1017.48
2017-11-15T10:19:35.636Z,1017.47
2017-11-15T10:20:35.619Z,1017.5
2017-11-15T10:21:35.604Z,1017.5
2017-11-15T10:22:35.588Z,1017.51
2017-11-15T10:23:35.572Z,1017.48
2017-11-15T10:24:35.556Z,1017.51
2017-11-15T10:25:35.541Z,1017.49
2017-11-15T10:26:35.531Z,1017.53
2017-11-15T10:27:35.507Z,1017.5
2017-11-15T10:28:35.495Z,1017.52
2017-11-15T10:29:35.476Z,1017.56
2017-11-15T10:30:35.465Z,1017.52
2017-11-15T10:31:35.446Z,1017.49
2017-11-15T10:32:35.428Z,1017.48
2017-11-15T10:33:35.416Z,1017.52
2017-11-15T10:34:35.396Z,1017.53
2017-11-15T10:35:35.384Z,1017.51
2017-11-15T10:36:35.366Z,1017.46
2017-11-15T10:37:35.350Z,1017.48
2017-11-15T10:38:35.335Z,1017.46
2017-11-15T10:39:35.320Z,1017.49
2017-11-15T10:40:35.304Z,1017.45
2017-11-15T10:41:35.292Z,1017.46
2017-11-15T10:42:35.275Z,1017.37
2017-11-15T10:43:35.258Z,1017.4
2017-11-15T10:44:35.241Z,1017.36
2017-11-15T10:45:35.248Z,1017.39
2017-11-15T10:46:35.211Z,1017.34
2017-11-15T10:47:35.195Z,1017.32
2017-11-15T10:48:35.179Z,1017.32
2017-11-15T10:49:35.163Z,1017.33
2017-11-15T10:50:35.148Z,1017.34
2017-11-15T10:51:35.133Z,1017.34
2017-11-15T10:52:35.119Z,1017.36
2017-11-15T10:53:35.102Z,1017.34
2017-11-15T10:54:35.087Z,1017.3
2017-11-15T10:55:35.072Z,1017.29
2017-11-15T10:56:35.053Z,1017.31
2017-11-15T10:57:35.036Z,1017.31
2017-11-15T10:58:35.026Z,1017.3
2017-11-15T10:59:35.005Z,1017.3
2017-11-15T11:00:34.990Z,1017.3
2017-11-15T11:01:34.975Z,1017.24
2017-11-15T11:02:34.962Z,1017.25
2017-11-15T11:03:34.943Z,1017.24
2017-11-15T11:04:34.930Z,1017.22
2017-11-15T11:05:34.911Z,1017.23
2017-11-15T11:06:34.895Z,1017.23
2017-11-15T11:07:34.884Z,1017.28
2017-11-15T11:08:34.866Z,1017.28
2017-11-15T11:09:34.854Z,1017.25
2017-11-15T11:10:34.834Z,1017.26
2017-11-15T11:11:34.817Z,1017.29
2017-11-15T11:12:34.802Z,1017.26
2017-11-15T11:13:34.786Z,1017.27
2017-11-15T11:14:34.770Z,1017.25
2017-11-15T11:15:34.755Z,1017.25
2017-11-15T11:16:34.739Z,1017.26
2017-11-15T11:17:34.723Z,1017.26
2017-11-15T11:18:34.708Z,1017.25
2017-11-15T11:19:34.691Z,1017.24
2017-11-15T11:20:34.675Z,1017.25
2017-11-15T11:21:34.660Z,1017.26
2017-11-15T11:22:34.644Z,1017.26
2017-11-15T11:23:34.629Z,1017.32
2017-11-15T11:24:34.621Z,1017.29
2017-11-15T11:25:34.598Z,1017.34
2017-11-15T11:26:34.581Z,1017.31
2017-11-15T11:27:34.567Z,1017.31
2017-11-15T11:28:34.549Z,1017.32
2017-11-15T11:29:34.533Z,1017.32
2017-11-15T11:30:34.523Z,1017.28
2017-11-15T11:31:34.502Z,1017.27
2017-11-15T11:32:34.489Z,1017.28
2017-11-15T11:33:34.469Z,1017.26
2017-11-15T11:34:34.463Z,1017.22
2017-11-15T11:35:34.438Z,1017.23
2017-11-15T11:36:34.424Z,1017.24
2017-11-15T11:37:34.410Z,1017.27
2017-11-15T11:38:34.392Z,1017.25
2017-11-15T11:39:34.376Z,1017.26
2017-11-15T11:40:34.360Z,1017.24
2017-11-15T11:41:34.342Z,1017.23
2017-11-15T11:42:34.327Z,1017.26
2017-11-15T11:43:34.312Z,1017.24
2017-11-15T11:44:34.295Z,1017.24
2017-11-15T11:45:34.287Z,1017.2
2017-11-15T11:46:34.263Z,1017.21
2017-11-15T11:47:34.270Z,1017.19
2017-11-15T11:48:34.231Z,1017.23
2017-11-15T11:49:34.218Z,1017.24
2017-11-15T11:50:34.202Z,1017.26
2017-11-15T11:51:34.183Z,1017.26
2017-11-15T11:52:34.168Z,1017.22
2017-11-15T11:53:34.153Z,1017.29
2017-11-15T11:54:34.135Z,1017.23
2017-11-15T11:55:34.123Z,1017.25
2017-11-15T11:56:34.307Z,1017.23
2017-11-15T11:57:34.091Z,1017.24
2017-11-15T11:58:34.073Z,1017.2
2017-11-15T11:59:34.055Z,1017.21
2017-11-15T12:00:34.072Z,1017.21
2017-11-15T12:01:34.024Z,1017.17
2017-11-15T12:02:34.008Z,1017.2
2017-11-15T12:03:33.994Z,1017.2
2017-11-15T12:04:33.976Z,1017.16
2017-11-15T12:05:33.958Z,1017.16
2017-11-15T12:06:33.943Z,1017.17
2017-11-15T12:07:33.927Z,1017.13
2017-11-15T12:08:33.913Z,1017.16